Time;durP1;ratioP1;P1;durP2;ratioP2;P2;SDS_P1;SDS_P2;PMS_P1;PMS_P2;Temp;Humidity;BMP_temperature;BMP_pressure;BME280_temperature;BME280_humidity;BME280_pressure;Samples;Min_cycle;Max_cycle;Signal;HPM_P1;HPM_P2
2022/07/26 00:01:37;;;;;;;4.17;1.10;;;;;;;25.13;61.46;100118.53;4827106;29;20088;-58
2022/07/26 00:04:08;;;;;;;2.67;1.20;;;;;;;25.02;61.75;100118.56;4827195;29;20062;-58
2022/07/26 00:06:39;;;;;;;3.97;1.10;;;;;;;24.90;60.98;100112.34;4828952;29;20050;-57
2022/07/26 00:09:09;;;;;;;8.37;1.30;;;;;;;25.08;61.51;100110.03;4827026;29;20247;-59
2022/07/26 00:11:40;;;;;;;7.17;1.30;;;;;;;25.39;61.49;100105.81;4828463;29;20111;-56
2022/07/26 00:14:12;;;;;;;3.53;1.17;;;;;;;25.49;59.42;100075.66;4829367;29;20046;-56
2022/07/26 00:16:43;;;;;;;7.17;1.50;;;;;;;25.46;59.27;100092.78;4828949;29;20334;-55
2022/07/26 00:19:14;;;;;;;5.20;1.47;;;;;;;25.72;59.74;100082.63;4828761;29;20065;-57
2022/07/26 00:21:45;;;;;;;1.97;1.10;;;;;;;25.90;59.05;100084.78;4820937;29;20069;-55
2022/07/26 00:24:15;;;;;;;5.03;0.90;;;;;;;26.12;58.63;100073.97;4825342;29;20168;-57
2022/07/26 00:26:46;;;;;;;10.93;1.60;;;;;;;26.29;59.04;100077.91;4826179;29;20069;-57
2022/07/26 00:29:18;;;;;;;2.37;1.10;;;;;;;26.33;57.71;100082.00;4825116;29;20284;-56
2022/07/26 00:31:49;;;;;;;5.93;1.20;;;;;;;26.35;57.46;100079.19;4826073;29;20319;-58
2022/07/26 00:34:19;;;;;;;4.10;1.20;;;;;;;26.46;58.12;100076.47;4829433;29;20314;-56
2022/07/26 00:36:50;;;;;;;2.70;1.30;;;;;;;26.42;57.82;100069.66;4829262;29;20421;-58
2022/07/26 00:39:20;;;;;;;25.30;2.40;;;;;;;26.06;57.96;100078.97;4829630;29;20065;-57
2022/07/26 00:41:51;;;;;;;87.87;6.80;;;;;;;25.74;59.11;100085.19;4829057;29;20065;-57
2022/07/26 00:44:23;;;;;;;2.83;1.53;;;;;;;25.28;58.98;100083.56;4829490;29;20246;-57
2022/07/26 00:46:54;;;;;;;11.70;1.90;;;;;;;25.04;60.21;100086.38;4829678;29;20310;-58
2022/07/26 00:49:24;;;;;;;4.60;1.37;;;;;;;24.94;60.89;100081.75;4829131;29;20077;-56
2022/07/26 00:51:55;;;;;;;6.03;1.70;;;;;;;24.87;61.92;100080.53;4829493;29;20129;-56
2022/07/26 00:54:26;;;;;;;6.03;1.67;;;;;;;24.77;62.02;100079.56;4829214;29;20346;-56
2022/07/26 00:56:56;;;;;;;3.97;1.80;;;;;;;24.41;62.16;100052.06;4829537;29;20058;-57
2022/07/26 00:59:28;;;;;;;12.83;2.50;;;;;;;24.32;62.92;100080.31;4829276;29;20054;-56
2022/07/26 01:01:59;;;;;;;13.00;2.60;;;;;;;24.15;63.98;100085.22;4829048;29;20066;-57
2022/07/26 01:04:30;;;;;;;10.93;1.67;;;;;;;23.86;63.93;100082.94;4828904;29;20077;-56
2022/07/26 01:07:01;;;;;;;3.40;1.50;;;;;;;23.69;64.31;100087.69;4829395;29;20085;-57
2022/07/26 01:09:44;;;;;;;2.27;1.30;;;;;;;23.60;65.26;100080.34;4829128;29;20050;-56
2022/07/26 01:12:14;;;;;;;3.10;1.63;;;;;;;23.58;66.42;100079.59;4829216;29;20058;-56
2022/07/26 01:14:46;;;;;;;4.77;1.83;;;;;;;23.56;66.18;100084.19;4829156;29;20331;-57
2022/07/26 01:17:18;;;;;;;6.10;2.10;;;;;;;23.56;66.89;100080.69;4829280;29;20068;-57
2022/07/26 01:19:48;;;;;;;11.83;3.40;;;;;;;23.59;67.07;100092.00;4828929;29;20058;-56
2022/07/26 01:22:21;;;;;;;6.63;2.30;;;;;;;23.65;67.22;100096.88;4829702;29;20277;-56
2022/07/26 01:24:51;;;;;;;5.43;1.70;;;;;;;23.67;67.55;100084.28;4830030;29;20148;-56
2022/07/26 01:27:22;;;;;;;28.40;3.80;;;;;;;23.74;67.55;100089.16;4829406;29;20060;-56
2022/07/26 01:29:53;;;;;;;4.53;2.00;;;;;;;23.77;67.23;100086.31;4829547;29;20380;-56
2022/07/26 01:32:23;;;;;;;3.90;1.47;;;;;;;23.80;67.49;100084.25;4830117;29;20124;-56
2022/07/26 01:34:54;;;;;;;2.90;1.80;;;;;;;23.92;67.68;100077.16;4829730;29;20272;-56
2022/07/26 01:37:26;;;;;;;5.10;1.80;;;;;;;24.13;68.10;100076.47;4828928;29;20269;-56
2022/07/26 01:39:56;;;;;;;4.87;1.53;;;;;;;24.35;67.41;100084.56;4827494;29;20065;-56
2022/07/26 01:42:27;;;;;;;3.90;1.70;;;;;;;24.55;66.61;100085.72;4828356;29;20054;-57
2022/07/26 01:44:58;;;;;;;4.70;1.80;;;;;;;24.66;65.13;100082.19;4827150;29;20066;-57
2022/07/26 01:47:28;;;;;;;5.97;1.70;;;;;;;24.91;64.77;100087.34;4828575;29;20104;-55
2022/07/26 01:49:59;;;;;;;2.23;1.50;;;;;;;25.26;64.73;100090.84;4828551;29;20070;-56
2022/07/26 01:52:31;;;;;;;4.73;1.40;;;;;;;25.61;64.17;100085.34;4828587;29;20246;-57
2022/07/26 01:55:02;;;;;;;17.47;1.97;;;;;;;25.74;62.74;100080.66;4828311;29;20054;-56
2022/07/26 01:57:33;;;;;;;6.57;1.60;;;;;;;25.86;62.03;100083.31;4828423;29;20492;-56
2022/07/26 02:00:05;;;;;;;7.73;1.70;;;;;;;25.95;61.09;100078.06;4828040;29;20391;-57
2022/07/26 02:02:36;;;;;;;4.37;1.50;;;;;;;26.18;61.85;100078.78;4827505;29;20368;-57
2022/07/26 02:05:07;;;;;;;3.17;1.30;;;;;;;26.53;61.09;100066.91;4828535;29;20054;-57
2022/07/26 02:07:42;;;;;;;2.07;1.50;;;;;;;26.79;61.55;100071.88;4827726;29;20057;-56
2022/07/26 02:10:14;;;;;;;4.37;1.40;;;;;;;26.98;59.87;100076.44;4828500;29;20061;-57
2022/07/26 02:12:46;;;;;;;8.33;1.37;;;;;;;27.00;58.92;100069.97;4829002;29;20253;-57
2022/07/26 02:15:16;;;;;;;3.87;1.67;;;;;;;27.29;59.14;100058.50;4828368;29;20084;-57
2022/07/26 02:17:47;;;;;;;5.50;1.70;;;;;;;27.74;59.14;100052.66;4827868;29;20058;-57
2022/07/26 02:20:17;;;;;;;11.00;1.60;;;;;;;28.00;59.15;100052.94;4828252;29;20075;-57
2022/07/26 02:22:50;;;;;;;11.87;2.00;;;;;;;27.62;56.57;100048.41;4827762;29;20061;-57
2022/07/26 02:25:20;;;;;;;6.43;1.73;;;;;;;27.08;57.31;100051.38;4827562;29;20111;-56
2022/07/26 02:27:51;;;;;;;5.90;1.60;;;;;;;26.73;58.49;100058.97;4825668;29;20058;-57
2022/07/26 02:30:21;;;;;;;8.70;2.00;;;;;;;26.42;60.26;100050.91;4828531;29;20054;-57
2022/07/26 02:32:52;;;;;;;17.37;2.10;;;;;;;26.15;62.24;100046.91;4828622;29;20400;-56
2022/07/26 02:35:22;;;;;;;4.17;1.50;;;;;;;25.90;64.66;100052.66;4830115;29;20159;-57
2022/07/26 02:37:55;;;;;;;3.50;1.90;;;;;;;25.66;65.19;100056.38;4828515;29;20234;-56
2022/07/26 02:40:26;;;;;;;5.20;1.57;;;;;;;25.50;66.57;100056.78;4828597;29;20073;-57
2022/07/26 02:42:56;;;;;;;3.10;1.67;;;;;;;25.40;66.40;100062.03;4827493;29;20074;-57
2022/07/26 02:45:27;;;;;;;4.63;1.60;;;;;;;25.30;66.84;100055.72;4828190;29;20675;-56
2022/07/26 02:47:57;;;;;;;8.63;1.97;;;;;;;25.27;67.75;100060.50;4827746;29;20053;-56
2022/07/26 02:50:29;;;;;;;9.50;2.13;;;;;;;25.26;68.35;100053.41;4827379;29;20103;-57
2022/07/26 02:53:01;;;;;;;7.37;2.20;;;;;;;25.37;68.56;100059.59;4825687;29;20068;-57
2022/07/26 02:55:32;;;;;;;4.83;1.60;;;;;;;25.47;68.29;100056.19;4823010;29;20556;-56
2022/07/26 02:58:02;;;;;;;9.07;2.10;;;;;;;25.50;67.81;100039.88;4822355;29;20140;-56
2022/07/26 03:00:33;;;;;;;4.90;1.60;;;;;;;25.67;67.50;100052.72;4825416;29;20119;-56
2022/07/26 03:03:03;;;;;;;3.20;1.40;;;;;;;25.67;67.81;100047.38;4827351;29;20062;-56
2022/07/26 03:05:34;;;;;;;25.83;2.33;;;;;;;25.60;67.10;100043.50;4827151;29;20058;-56
2022/07/26 03:08:07;;;;;;;6.80;1.30;;;;;;;25.37;66.79;100030.19;4827519;29;20060;-56
2022/07/26 03:10:37;;;;;;;8.90;2.67;;;;;;;25.20;67.02;100040.56;4828009;29;20088;-56
2022/07/26 03:13:09;;;;;;;8.53;2.10;;;;;;;25.19;67.77;100045.06;4830766;29;20072;-57
2022/07/26 03:15:39;;;;;;;11.63;2.73;;;;;;;25.11;69.69;100051.00;4830694;29;20121;-56
2022/07/26 03:18:10;;;;;;;5.40;1.90;;;;;;;25.10;71.33;100048.44;4831234;29;20154;-56
2022/07/26 03:20:41;;;;;;;9.80;2.40;;;;;;;24.94;72.27;100052.34;4831176;29;20058;-54
2022/07/26 03:23:13;;;;;;;5.20;1.80;;;;;;;24.81;72.89;100038.28;4830395;29;20200;-56
2022/07/26 03:25:44;;;;;;;6.37;1.90;;;;;;;24.70;74.10;100035.59;4830950;29;20072;-57
2022/07/26 03:28:14;;;;;;;6.43;1.87;;;;;;;24.65;74.72;100037.78;4831092;29;20327;-55
2022/07/26 03:30:48;;;;;;;7.47;2.20;;;;;;;24.61;74.72;100034.50;4830733;29;20117;-55
2022/07/26 03:33:19;;;;;;;7.17;1.90;;;;;;;24.70;73.97;100035.59;4830140;29;20238;-54
2022/07/26 03:35:49;;;;;;;6.90;1.73;;;;;;;24.62;75.21;100033.53;4830507;29;20493;-56
2022/07/26 03:38:21;;;;;;;6.33;1.90;;;;;;;24.73;76.89;100030.00;4825386;29;20065;-55
2022/07/26 03:40:52;;;;;;;5.30;1.83;;;;;;;24.64;76.51;100044.94;4825884;29;20077;-55
2022/07/26 03:43:22;;;;;;;3.90;1.70;;;;;;;24.56;75.46;100033.16;4826677;29;20445;-55
2022/07/26 03:45:53;;;;;;;4.73;1.93;;;;;;;24.58;76.20;100031.22;4826189;29;20111;-56
2022/07/26 03:48:24;;;;;;;2.57;1.43;;;;;;;24.56;76.57;100025.13;4826357;29;20061;-55
2022/07/26 03:50:55;;;;;;;3.07;1.67;;;;;;;24.51;77.46;100023.69;4826129;29;20089;-55
2022/07/26 03:53:27;;;;;;;4.07;1.57;;;;;;;24.51;76.85;100025.50;4826573;29;20054;-55
2022/07/26 03:58:45;;;;;;;7.10;2.30;;;;;;;24.87;73.34;100027.09;4826433;29;20065;-54
2022/07/26 04:01:15;;;;;;;5.70;2.40;;;;;;;25.28;75.00;100020.22;4826279;29;20062;-56
2022/07/26 04:03:46;;;;;;;8.33;2.87;;;;;;;25.76;73.74;100025.19;4826068;29;20063;-54
2022/07/26 04:06:16;;;;;;;3.57;1.37;;;;;;;26.03;69.94;100018.50;4826045;29;20062;-55
2022/07/26 04:08:53;;;;;;;1.40;1.10;;;;;;;26.04;65.88;100009.50;4825857;29;20792;-56
2022/07/26 04:11:24;;;;;;;3.63;1.30;;;;;;;26.05;64.94;100013.88;4825986;29;20307;-56
2022/07/26 04:13:57;;;;;;;7.37;2.43;;;;;;;26.14;68.60;100010.41;4826208;29;20105;-56
2022/07/26 04:16:27;;;;;;;3.67;1.30;;;;;;;26.25;68.37;100010.34;4826218;29;20058;-56
2022/07/26 04:18:58;;;;;;;4.73;1.40;;;;;;;26.26;67.43;100005.84;4826158;29;20288;-56
2022/07/26 04:21:29;;;;;;;1.73;1.23;;;;;;;26.22;65.60;100010.59;4826007;29;20065;-55
2022/07/26 04:24:01;;;;;;;4.20;1.47;;;;;;;26.12;65.79;100014.22;4826248;29;20050;-56
2022/07/26 04:26:32;;;;;;;5.93;2.47;;;;;;;25.87;63.98;100007.41;4826066;29;20098;-56
2022/07/26 04:29:02;;;;;;;5.63;1.90;;;;;;;25.85;65.41;100006.66;4826409;29;20054;-56
2022/07/26 04:31:50;;;;;;;1.60;1.17;;;;;;;25.86;64.42;100013.72;4824704;29;20058;-56
2022/07/26 04:34:21;;;;;;;2.40;1.40;;;;;;;25.76;63.41;100009.13;4825948;29;20125;-57
2022/07/26 04:36:52;;;;;;;1.57;1.40;;;;;;;25.71;63.44;100015.84;4825141;29;20073;-56
2022/07/26 04:39:24;;;;;;;11.23;1.60;;;;;;;25.70;62.91;100017.66;4825835;29;20054;-53
2022/07/26 04:41:55;;;;;;;6.27;1.70;;;;;;;25.66;62.99;100018.91;4826242;29;20046;-55
2022/07/26 04:44:25;;;;;;;3.87;1.20;;;;;;;25.65;64.31;100025.22;4826126;29;20099;-56
2022/07/26 04:46:56;;;;;;;2.90;1.53;;;;;;;25.42;65.79;100026.28;4826062;29;20214;-56
2022/07/26 04:49:26;;;;;;;2.53;1.30;;;;;;;25.22;66.35;100026.09;4825416;29;20261;-56
2022/07/26 04:51:58;;;;;;;4.33;1.67;;;;;;;25.15;68.22;100030.19;4825625;29;20058;-56
2022/07/26 04:54:30;;;;;;;2.90;1.30;;;;;;;24.91;71.22;100017.84;4825986;29;20125;-56
2022/07/26 04:57:00;;;;;;;3.63;1.30;;;;;;;24.62;71.93;100016.66;4825930;29;20091;-56
2022/07/26 04:59:31;;;;;;;5.70;1.40;;;;;;;24.47;72.92;100030.22;4825768;29;20058;-56
2022/07/26 05:02:02;;;;;;;4.63;1.50;;;;;;;24.40;73.23;100023.63;4825900;29;20050;-56
2022/07/26 05:04:33;;;;;;;10.20;1.60;;;;;;;24.39;73.11;100027.28;4825834;29;20062;-54
2022/07/26 05:07:03;;;;;;;6.80;1.57;;;;;;;24.39;73.13;100031.75;4825530;29;20284;-55
2022/07/26 05:09:35;;;;;;;3.93;1.53;;;;;;;24.38;73.33;100041.59;4825645;29;20287;-55
2022/07/26 05:12:06;;;;;;;1.50;1.30;;;;;;;24.33;73.15;100043.75;4825473;29;20061;-55
2022/07/26 05:14:37;;;;;;;2.17;1.20;;;;;;;24.35;72.49;100047.16;4825719;29;20525;-55
2022/07/26 05:17:08;;;;;;;8.43;1.33;;;;;;;24.31;71.31;100045.69;4784220;29;20351;-55
2022/07/26 05:19:39;;;;;;;3.07;1.30;;;;;;;24.23;71.16;100042.78;4809355;29;20322;-56
2022/07/26 05:22:16;;;;;;;5.90;1.10;;;;;;;24.22;71.21;100041.94;4811211;29;20066;-55
2022/07/26 05:24:48;;;;;;;4.60;1.00;;;;;;;24.21;69.20;100044.72;4813367;29;20099;-55
2022/07/26 05:27:18;;;;;;;6.43;0.97;;;;;;;24.11;67.86;100040.09;4811002;29;20092;-54
2022/07/26 05:29:49;;;;;;;5.73;1.50;;;;;;;24.15;68.45;100039.84;4810799;29;20059;-55
2022/07/26 05:32:19;;;;;;;6.67;1.10;;;;;;;24.12;67.90;100046.28;4810714;29;20059;-55
2022/07/26 05:34:50;;;;;;;4.97;0.97;;;;;;;24.25;69.05;100041.69;4809961;29;20058;-56
2022/07/26 05:37:21;;;;;;;2.97;1.07;;;;;;;24.36;68.39;100053.34;4810635;29;20085;-56
2022/07/26 05:39:53;;;;;;;5.27;1.20;;;;;;;24.27;68.01;100050.44;4810566;29;20062;-56
2022/07/26 05:42:24;;;;;;;3.70;1.07;;;;;;;24.10;68.94;100038.38;4810666;29;20332;-55
2022/07/26 05:44:55;;;;;;;2.83;0.90;;;;;;;24.02;69.29;100051.47;4810488;29;20067;-55
2022/07/26 05:47:25;;;;;;;1.07;0.90;;;;;;;23.99;69.75;100045.50;4811047;29;20063;-55
2022/07/26 05:49:56;;;;;;;2.60;1.00;;;;;;;24.07;69.64;100043.97;4798651;29;20071;-55
2022/07/26 05:52:26;;;;;;;5.37;1.50;;;;;;;24.10;69.80;100043.72;4792233;29;20067;-55
2022/07/26 05:54:59;;;;;;;6.83;1.10;;;;;;;24.07;70.08;100049.28;4792302;29;20078;-54
2022/07/26 05:57:29;;;;;;;4.03;1.20;;;;;;;24.14;70.17;100048.81;4794323;29;20082;-56
2022/07/26 06:00:00;;;;;;;4.10;0.90;;;;;;;24.19;69.27;100055.53;4792460;29;20055;-54
2022/07/26 06:02:30;;;;;;;9.87;1.30;;;;;;;24.27;68.23;100054.94;4792090;29;20120;-56
2022/07/26 06:05:01;;;;;;;5.90;1.20;;;;;;;24.30;67.74;100057.34;4792077;30;20062;-56
2022/07/26 06:07:32;;;;;;;11.83;1.33;;;;;;;24.41;67.70;100057.41;4791857;30;20070;-55
2022/07/26 06:10:04;;;;;;;1.97;1.10;;;;;;;24.50;67.57;100062.03;4792033;29;20116;-54
2022/07/26 06:12:35;;;;;;;1.87;1.10;;;;;;;24.40;65.26;100055.69;4791718;30;20072;-53
2022/07/26 06:15:06;;;;;;;6.20;1.53;;;;;;;24.16;66.56;100030.88;4792149;30;20358;-55
2022/07/26 06:17:44;;;;;;;2.05;1.00;;;;;;;24.26;66.22;100058.56;4792397;30;20346;-56
2022/07/26 06:20:14;;;;;;;2.77;0.97;;;;;;;24.16;65.89;100063.75;4792018;30;20066;-55
2022/07/26 06:22:45;;;;;;;2.50;1.20;;;;;;;24.05;67.49;100067.25;4791893;29;20115;-54
2022/07/26 06:25:17;;;;;;;7.70;1.33;;;;;;;23.91;66.92;100059.41;4791890;29;20051;-56
2022/07/26 06:27:48;;;;;;;4.23;1.20;;;;;;;23.65;67.43;100070.19;4791613;29;20062;-55
2022/07/26 06:30:18;;;;;;;4.47;1.10;;;;;;;23.54;67.93;100062.16;4792338;29;20122;-55
2022/07/26 06:32:49;;;;;;;6.37;1.10;;;;;;;23.48;69.41;100062.59;4791530;29;20047;-53
2022/07/26 06:35:20;;;;;;;3.33;1.17;;;;;;;23.52;69.56;100064.06;4791773;29;20074;-56
2022/07/26 06:37:51;;;;;;;4.70;1.07;;;;;;;23.45;68.93;100063.66;4791519;29;20067;-55
2022/07/26 06:40:23;;;;;;;3.00;1.00;;;;;;;23.46;69.95;100067.16;4790693;29;20074;-56
2022/07/26 06:42:54;;;;;;;11.77;1.60;;;;;;;23.41;69.26;100061.31;4790029;30;20513;-56
2022/07/26 06:45:27;;;;;;;13.07;1.50;;;;;;;23.41;70.33;100066.66;4790629;29;20058;-55
2022/07/26 06:47:58;;;;;;;4.17;1.20;;;;;;;23.36;70.26;100074.13;4790532;30;20058;-54
2022/07/26 06:50:28;;;;;;;5.17;1.30;;;;;;;23.21;70.54;100076.97;4790231;29;20074;-55
2022/07/26 06:52:59;;;;;;;10.03;1.80;;;;;;;23.06;70.61;100072.72;4790495;30;20229;-56
2022/07/26 06:55:31;;;;;;;5.17;1.10;;;;;;;22.96;70.36;100055.66;4790433;30;20066;-55
2022/07/26 06:58:01;;;;;;;4.27;1.03;;;;;;;22.96;70.85;100066.31;4790590;30;20073;-56
2022/07/26 07:00:32;;;;;;;9.03;2.10;;;;;;;22.94;70.94;100068.22;4790214;30;20274;-55
2022/07/26 07:03:02;;;;;;;3.50;1.30;;;;;;;22.90;70.84;100061.44;4789978;30;20119;-56
2022/07/26 07:05:33;;;;;;;3.27;1.10;;;;;;;22.96;70.98;100071.63;4790901;30;20120;-56
2022/07/26 07:08:04;;;;;;;6.97;1.80;;;;;;;23.05;71.12;100065.69;4789656;29;20266;-56
2022/07/26 07:10:37;;;;;;;3.27;1.03;;;;;;;23.17;71.01;100066.63;4790335;30;20362;-56
2022/07/26 07:13:09;;;;;;;5.37;1.30;;;;;;;23.34;70.18;100054.72;4790426;29;20059;-56
2022/07/26 07:15:40;;;;;;;1.53;1.00;;;;;;;23.41;69.96;100048.88;4790737;30;20547;-56
2022/07/26 07:18:10;;;;;;;2.10;1.20;;;;;;;23.37;69.91;100055.38;4790987;30;20059;-56
2022/07/26 07:20:41;;;;;;;5.47;1.30;;;;;;;23.14;69.25;100027.75;4790921;30;20130;-56
2022/07/26 07:23:12;;;;;;;4.67;0.90;;;;;;;23.28;69.33;100049.88;4790641;30;20085;-56
2022/07/26 07:25:44;;;;;;;3.80;1.00;;;;;;;23.25;70.10;100057.13;4790765;29;20206;-56
2022/07/26 07:28:17;;;;;;;2.03;1.07;;;;;;;23.09;69.31;100032.56;4790964;30;20062;-55
2022/07/26 07:30:48;;;;;;;2.17;1.10;;;;;;;23.16;69.90;100062.25;4790671;30;20340;-55
2022/07/26 07:33:19;;;;;;;3.80;1.10;;;;;;;23.13;70.56;100063.31;4791036;30;20138;-55
2022/07/26 07:35:52;;;;;;;10.00;1.67;;;;;;;23.09;70.70;100066.31;4790485;29;20063;-55
2022/07/26 07:38:23;;;;;;;6.73;1.20;;;;;;;23.00;70.70;100062.50;4790471;30;20107;-55
2022/07/26 07:40:55;;;;;;;8.60;1.50;;;;;;;23.00;71.71;100067.84;4789305;30;20060;-55
2022/07/26 07:43:26;;;;;;;15.93;1.80;;;;;;;22.96;72.06;100068.97;4789913;29;20066;-56
2022/07/26 07:45:56;;;;;;;6.37;1.47;;;;;;;22.88;72.15;100068.69;4790433;29;20063;-56
2022/07/26 07:48:27;;;;;;;10.57;1.80;;;;;;;22.84;72.05;100076.06;4789775;29;20051;-56
2022/07/26 07:50:57;;;;;;;7.10;1.50;;;;;;;22.83;71.99;100067.19;4790226;30;20062;-56
2022/07/26 07:53:28;;;;;;;9.37;1.70;;;;;;;22.86;72.03;100075.91;4790012;30;20075;-55
2022/07/26 07:56:01;;;;;;;8.97;1.73;;;;;;;22.86;72.19;100075.91;4790273;29;20303;-56
2022/07/26 07:58:31;;;;;;;3.43;1.20;;;;;;;22.81;71.41;100082.44;4790210;30;20126;-56
2022/07/26 08:01:02;;;;;;;5.10;1.30;;;;;;;22.73;70.43;100095.44;4790103;30;20540;-56
2022/07/26 08:03:33;;;;;;;2.90;1.27;;;;;;;22.44;71.42;100049.53;4789901;30;20605;-56
2022/07/26 08:06:09;;;;;;;4.73;1.60;;;;;;;22.70;71.55;100098.31;4789910;29;20462;-55
2022/07/26 08:08:40;;;;;;;3.70;1.30;;;;;;;22.69;71.66;100096.63;4788953;29;20059;-57
2022/07/26 08:11:13;;;;;;;17.83;1.87;;;;;;;22.58;71.88;100094.69;4789949;30;20057;-56
2022/07/26 08:13:43;;;;;;;3.63;1.20;;;;;;;22.55;71.81;100094.06;4789823;29;20412;-57
2022/07/26 08:16:16;;;;;;;9.07;2.07;;;;;;;22.49;72.04;100083.81;4789904;30;20284;-56
2022/07/26 08:18:47;;;;;;;6.40;1.57;;;;;;;22.39;72.61;100088.94;4790085;29;20299;-56
2022/07/26 08:21:26;;;;;;;12.10;2.00;;;;;;;22.29;73.30;100094.03;4789842;30;20059;-56
2022/07/26 08:23:57;;;;;;;4.80;1.40;;;;;;;22.20;73.27;100078.69;4789646;30;20565;-56
2022/07/26 08:26:30;;;;;;;10.40;1.80;;;;;;;22.24;73.13;100087.28;4789828;30;20296;-56
2022/07/26 08:29:00;;;;;;;4.83;1.40;;;;;;;22.20;72.50;100099.97;4789658;30;20305;-56
2022/07/26 08:31:31;;;;;;;6.20;1.13;;;;;;;22.18;73.23;100107.16;4789261;30;20067;-56
2022/07/26 08:34:02;;;;;;;9.73;1.47;;;;;;;22.13;73.96;100111.94;4789625;30;20311;-57
2022/07/26 08:36:32;;;;;;;9.83;1.70;;;;;;;22.07;74.59;100104.38;4789732;29;20626;-56
2022/07/26 08:39:03;;;;;;;4.23;1.93;;;;;;;22.06;74.13;100107.97;4789525;29;20293;-56
2022/07/26 08:41:39;;;;;;;10.17;1.70;;;;;;;22.08;73.63;100114.06;4788648;30;20319;-56
2022/07/26 08:44:10;;;;;;;7.67;1.63;;;;;;;22.07;72.57;100099.06;4789635;30;20591;-57
2022/07/26 08:46:43;;;;;;;6.70;1.37;;;;;;;22.05;72.49;100100.97;4789637;29;20293;-56
2022/07/26 08:49:14;;;;;;;6.43;1.43;;;;;;;22.04;71.81;100115.22;4789469;29;20380;-57
2022/07/26 08:51:45;;;;;;;5.20;1.60;;;;;;;21.71;71.37;100055.31;4790705;29;20313;-56
2022/07/26 08:54:16;;;;;;;10.00;1.97;;;;;;;22.02;71.93;100106.50;4792595;29;20342;-56
2022/07/26 08:56:53;;;;;;;2.57;1.40;;;;;;;21.97;71.49;100110.31;4796438;29;20712;-56
2022/07/26 08:59:23;;;;;;;9.33;2.30;;;;;;;21.97;71.97;100110.31;4811368;29;20347;-56
2022/07/26 09:01:56;;;;;;;40.03;7.53;;;;;;;22.04;73.22;100116.09;4810663;29;20315;-57
2022/07/26 09:04:28;;;;;;;11.93;3.80;;;;;;;22.00;75.31;100113.72;4810749;29;20338;-56
2022/07/26 09:07:05;;;;;;;6.37;2.17;;;;;;;21.88;76.64;100116.22;4811010;29;20073;-56
2022/07/26 09:09:38;;;;;;;7.13;2.20;;;;;;;21.77;77.09;100108.13;4810480;29;20312;-57
2022/07/26 09:12:18;;;;;;;16.37;2.27;;;;;;;21.73;77.37;100119.91;4811059;29;20509;-56
2022/07/26 09:14:49;;;;;;;18.07;2.70;;;;;;;21.67;78.43;100117.66;4811402;29;20360;-58
2022/07/26 09:17:22;;;;;;;21.33;2.90;;;;;;;21.66;78.74;100121.25;4810754;29;20299;-57
2022/07/26 09:20:08;;;;;;;8.40;2.10;;;;;;;21.53;79.00;100121.19;4810601;29;20306;-56
2022/07/26 09:22:39;;;;;;;6.83;2.53;;;;;;;21.54;79.31;100134.38;4811418;29;20288;-57
2022/07/26 09:25:22;;;;;;;9.70;3.00;;;;;;;21.51;80.21;100123.94;4810783;29;20494;-57
2022/07/26 09:27:55;;;;;;;9.77;2.40;;;;;;;21.48;79.52;100125.94;4810811;29;20296;-57
2022/07/26 09:30:26;;;;;;;4.87;1.70;;;;;;;21.43;79.67;100126.22;4810643;29;20605;-57
2022/07/26 09:33:02;;;;;;;11.10;2.30;;;;;;;21.39;79.82;100132.72;4810974;29;20280;-57
2022/07/26 09:35:36;;;;;;;5.17;2.10;;;;;;;21.33;79.52;100139.22;4810487;29;20316;-57
2022/07/26 09:38:20;;;;;;;5.17;2.10;;;;;;;21.26;80.33;100135.22;4809969;29;20731;-56
2022/07/26 09:40:54;;;;;;;9.40;1.97;;;;;;;21.28;80.36;100137.81;4810574;29;20291;-57
2022/07/26 09:43:37;;;;;;;10.57;2.20;;;;;;;21.23;80.43;100145.22;4810340;29;20375;-57
2022/07/26 09:46:09;;;;;;;7.07;2.00;;;;;;;21.26;80.77;100145.00;4810677;29;20316;-57
2022/07/26 09:48:40;;;;;;;20.63;2.93;;;;;;;21.30;81.49;100151.84;4810167;29;20304;-56
2022/07/26 09:51:39;;;;;;;7.10;2.27;;;;;;;21.11;81.61;100120.25;4809942;29;20316;-56
2022/07/26 09:54:11;;;;;;;5.13;2.07;;;;;;;21.14;81.87;100135.16;4809997;29;20312;-57
2022/07/26 09:56:45;;;;;;;12.60;2.20;;;;;;;21.13;82.42;100144.09;4810183;29;20391;-56
2022/07/26 09:59:19;;;;;;;8.63;2.13;;;;;;;21.07;82.66;100153.28;4810118;29;20351;-56
2022/07/26 10:01:51;;;;;;;8.30;2.07;;;;;;;21.00;83.18;100152.81;4810358;29;20288;-57
2022/07/26 10:04:23;;;;;;;3.37;1.90;;;;;;;20.91;83.62;100158.66;4809807;29;20336;-56
2022/07/26 10:06:54;;;;;;;9.33;2.30;;;;;;;20.79;83.73;100162.06;4810409;29;20646;-58
2022/07/26 10:09:26;;;;;;;8.60;1.70;;;;;;;20.74;84.31;100153.53;4810220;29;20290;-57
2022/07/26 10:12:01;;;;;;;5.13;1.70;;;;;;;20.74;85.28;100164.16;4809547;29;20338;-58
2022/07/26 10:14:41;;;;;;;7.30;2.10;;;;;;;20.64;85.92;100170.03;4810036;29;20348;-56
2022/07/26 10:17:41;;;;;;;4.97;1.63;;;;;;;20.56;86.34;100169.59;4809759;29;20285;-57
2022/07/26 10:20:11;;;;;;;;;;;;;;;20.47;86.42;100170.16;4810182;29;20450;-56
2022/07/26 10:22:49;;;;;;;6.67;1.90;;;;;;;20.43;86.73;100181.88;4810011;29;20011;-57
2022/07/26 10:25:48;;;;;;;10.53;2.00;;;;;;;20.41;87.02;100183.75;4809740;29;20288;-57
2022/07/26 10:28:26;;;;;;;9.73;2.10;;;;;;;20.38;87.38;100178.63;4810096;29;20284;-57
2022/07/26 10:31:30;;;;;;;8.45;2.33;;;;;;;20.37;87.43;100176.94;4810020;29;20544;-57
2022/07/26 10:34:02;;;;;;;16.30;2.10;;;;;;;20.30;87.34;100170.28;4809736;29;20046;-59
2022/07/26 10:36:37;;;;;;;7.20;1.70;;;;;;;20.32;86.37;100185.16;4809945;29;20292;-57
2022/07/26 10:39:12;;;;;;;23.83;2.77;;;;;;;20.34;85.81;100183.25;4809536;29;20284;-57
2022/07/26 10:41:45;;;;;;;12.93;2.37;;;;;;;20.30;85.82;100186.19;4809533;29;20364;-56
2022/07/26 10:44:34;;;;;;;4.00;1.97;;;;;;;20.26;86.26;100194.31;4809553;29;20285;-57
2022/07/26 10:47:19;;;;;;;6.10;1.73;;;;;;;20.25;86.29;100200.56;4809717;29;20320;-56
2022/07/26 10:49:58;;;;;;;6.23;1.70;;;;;;;20.21;86.34;100198.19;4809447;29;20356;-57
2022/07/26 10:52:30;;;;;;;7.93;1.80;;;;;;;20.12;86.48;100202.22;4809264;29;20352;-56
2022/07/26 10:55:10;;;;;;;6.23;3.03;;;;;;;20.12;87.05;100207.53;4809386;29;20355;-57
2022/07/26 10:57:42;;;;;;;9.67;3.53;;;;;;;20.10;87.40;100200.59;4808947;29;20676;-57
2022/07/26 11:00:16;;;;;;;5.00;1.87;;;;;;;20.08;87.94;100205.13;4809444;29;20284;-57
2022/07/26 11:02:54;;;;;;;6.37;1.63;;;;;;;20.03;87.64;100210.69;4809177;29;20292;-57
2022/07/26 11:05:27;;;;;;;5.37;2.20;;;;;;;19.96;87.64;100199.56;4809217;29;20285;-59
2022/07/26 11:08:03;;;;;;;5.90;2.20;;;;;;;19.94;88.02;100204.09;4809156;29;20296;-57
2022/07/26 11:10:35;;;;;;;4.27;2.20;;;;;;;19.94;88.34;100206.75;4808222;29;20312;-57
2022/07/26 11:13:16;;;;;;;8.27;2.30;;;;;;;19.83;88.55;100202.06;4809177;29;20633;-57
2022/07/26 11:15:49;;;;;;;8.93;3.43;;;;;;;19.66;88.82;100188.84;4808794;29;20371;-56
2022/07/26 11:18:26;;;;;;;9.30;3.00;;;;;;;19.68;88.66;100205.56;4807618;29;20292;-57
2022/07/26 11:20:58;;;;;;;12.17;2.80;;;;;;;19.62;88.63;100211.19;4807986;29;20300;-57
2022/07/26 11:23:34;;;;;;;8.07;3.57;;;;;;;19.56;88.71;100195.59;4807494;29;20355;-57
2022/07/26 11:26:16;;;;;;;21.10;4.70;;;;;;;19.59;88.91;100206.03;4807721;29;20296;-56
2022/07/26 11:28:57;;;;;;;9.13;4.60;;;;;;;19.56;89.15;100211.50;4807229;29;20300;-57
2022/07/26 11:31:36;;;;;;;9.27;3.77;;;;;;;19.48;89.04;100214.56;4807439;29;20326;-57
2022/07/26 11:34:29;;;;;;;9.90;4.67;;;;;;;19.37;89.04;100207.22;4807415;29;20288;-57
2022/07/26 11:37:01;;;;;;;9.80;3.60;;;;;;;19.49;89.54;100226.03;4807940;29;20280;-57
2022/07/26 11:39:34;;;;;;;16.90;4.57;;;;;;;19.50;89.46;100225.09;4807419;29;20579;-57
2022/07/26 11:42:06;;;;;;;9.57;4.70;;;;;;;19.49;89.59;100220.72;4807454;29;20288;-56
2022/07/26 11:44:37;;;;;;;14.33;4.00;;;;;;;19.47;89.49;100227.88;4807245;29;20304;-57
2022/07/26 11:47:15;;;;;;;10.97;3.27;;;;;;;19.44;89.49;100230.72;4807610;29;20296;-57
2022/07/26 11:49:48;;;;;;;9.97;3.60;;;;;;;19.32;89.59;100225.16;4807826;29;20371;-57
2022/07/26 11:52:38;;;;;;;19.33;3.50;;;;;;;19.39;89.98;100247.72;4808137;29;20311;-57